Time;durP1;ratioP1;P1;durP2;ratioP2;P2;SDS_P1;SDS_P2;PMS_P1;PMS_P2;Temp;Humidity;BMP_temperature;BMP_pressure;BME280_temperature;BME280_humidity;BME280_pressure;Samples;Min_cycle;Max_cycle;Signal;HPM_P1;HPM_P2
2021/08/28 00:00:24;;;;;;;3.03;2.47;;;;;;;8.00;100.00;95138.19;5052823;28;20458;-49
2021/08/28 00:02:53;;;;;;;2.65;2.42;;;;;;;7.96;100.00;95141.59;5052997;28;20398;-47
2021/08/28 00:05:18;;;;;;;5.10;2.90;;;;;;;7.93;100.00;95142.13;5052667;28;20373;-52
2021/08/28 00:07:43;;;;;;;4.60;3.00;;;;;;;7.93;100.00;95137.59;5045818;28;20098;-48
2021/08/28 00:10:10;;;;;;;3.78;2.60;;;;;;;7.95;100.00;95142.66;5051375;28;20476;-50
2021/08/28 00:12:35;;;;;;;2.72;2.38;;;;;;;8.01;100.00;95149.66;5050986;28;20484;-51
2021/08/28 00:15:02;;;;;;;3.30;2.70;;;;;;;8.00;100.00;95138.19;5052651;28;20039;-48
2021/08/28 00:17:34;;;;;;;3.53;2.47;;;;;;;8.03;100.00;95151.06;5051204;28;20032;-47
2021/08/28 00:20:04;;;;;;;6.85;3.10;;;;;;;8.05;100.00;95142.81;5052512;28;20037;-49
2021/08/28 00:22:29;;;;;;;3.78;3.08;;;;;;;8.11;100.00;95152.47;5051140;28;20020;-47
2021/08/28 00:24:55;;;;;;;4.88;2.75;;;;;;;8.10;100.00;95142.84;5052182;28;20063;-49
2021/08/28 00:27:23;;;;;;;5.18;3.15;;;;;;;8.10;100.00;95146.31;5052383;28;20025;-50
2021/08/28 00:29:49;;;;;;;7.75;3.05;;;;;;;8.07;100.00;95141.50;5052257;28;20025;-52
2021/08/28 00:32:15;;;;;;;5.57;2.70;;;;;;;8.05;100.00;95140.13;5052078;28;20016;-49
2021/08/28 00:34:41;;;;;;;3.67;2.67;;;;;;;8.03;100.00;95139.56;5052328;28;20498;-49
2021/08/28 00:37:06;;;;;;;4.35;3.50;;;;;;;7.99;100.00;95133.91;5067458;28;20121;-48
2021/08/28 00:39:31;;;;;;;3.53;2.60;;;;;;;7.95;100.00;95127.47;5052019;28;20025;-49
2021/08/28 00:41:58;;;;;;;5.70;3.30;;;;;;;7.98;100.00;95126.97;5050647;28;20029;-47
2021/08/28 00:44:23;;;;;;;7.63;3.55;;;;;;;8.02;100.00;95132.59;5052507;28;20522;-50
2021/08/28 00:46:50;;;;;;;4.97;3.17;;;;;;;8.03;100.00;95129.72;5051641;28;20028;-51
2021/08/28 00:49:15;;;;;;;4.22;3.05;;;;;;;8.03;100.00;95120.88;5052171;28;20029;-48
2021/08/28 00:51:41;;;;;;;4.53;3.15;;;;;;;8.03;100.00;95127.06;5050881;28;20032;-48
2021/08/28 00:54:07;;;;;;;5.40;3.15;;;;;;;8.02;100.00;95120.06;5050346;28;20506;-49
2021/08/28 00:56:34;;;;;;;3.95;3.42;;;;;;;8.00;100.00;95116.84;5051771;28;20032;-49
2021/08/28 00:58:59;;;;;;;4.85;3.20;;;;;;;7.99;100.00;95111.78;5051950;28;20499;-47
2021/08/28 01:01:50;;;;;;;4.07;3.05;;;;;;;7.97;100.00;95103.22;5041955;28;20067;-49
2021/08/28 01:04:20;;;;;;;5.60;3.20;;;;;;;7.97;100.00;95105.88;5052828;28;20052;-51
2021/08/28 01:07:04;;;;;;;3.78;3.00;;;;;;;7.95;100.00;95100.81;5033970;28;20067;-51
2021/08/28 01:09:35;;;;;;;9.13;3.22;;;;;;;7.95;100.00;95095.47;5049739;28;20109;-47
2021/08/28 01:12:34;;;;;;;4.65;3.30;;;;;;;7.97;100.00;95095.22;5041671;28;20021;-47
2021/08/28 01:15:08;;;;;;;5.05;3.10;;;;;;;7.99;100.00;95085.91;5040550;28;20044;-50
2021/08/28 01:17:35;;;;;;;4.75;3.13;;;;;;;8.01;100.00;95086.47;5051407;28;20025;-48
2021/08/28 01:20:27;;;;;;;6.63;3.33;;;;;;;8.01;100.00;95088.31;5051613;28;20040;-48
2021/08/28 01:22:54;;;;;;;5.57;3.47;;;;;;;8.07;100.00;95082.00;5051131;28;20029;-49
2021/08/28 01:25:21;;;;;;;8.45;3.17;;;;;;;8.09;100.00;95087.88;5051536;28;20033;-47
2021/08/28 01:28:01;;;;;;;4.18;3.00;;;;;;;8.09;100.00;95078.03;5051064;28;20083;-51
2021/08/28 01:30:26;;;;;;;3.03;2.72;;;;;;;8.09;100.00;95070.03;5051481;28;20040;-50
2021/08/28 01:32:52;;;;;;;3.95;3.17;;;;;;;8.10;100.00;95076.16;5051273;28;20379;-47
2021/08/28 01:35:21;;;;;;;4.50;3.42;;;;;;;8.06;100.00;95069.72;5050066;28;20395;-50
2021/08/28 01:37:52;;;;;;;4.22;2.80;;;;;;;8.02;100.00;95065.91;5051330;28;20103;-51
2021/08/28 01:40:23;;;;;;;4.78;3.45;;;;;;;7.97;100.00;95077.34;5051061;28;20108;-46
2021/08/28 01:42:53;;;;;;;4.38;2.92;;;;;;;7.95;100.00;95071.47;5049966;28;20032;-46
2021/08/28 01:45:22;;;;;;;7.47;3.08;;;;;;;7.94;100.00;95077.06;5066694;28;20065;-47
2021/08/28 01:47:48;;;;;;;4.15;2.97;;;;;;;7.92;100.00;95071.94;5051292;28;20057;-49
2021/08/28 01:50:19;;;;;;;7.07;2.90;;;;;;;7.94;100.00;95072.53;5051314;28;20515;-47
2021/08/28 01:52:45;;;;;;;4.10;3.17;;;;;;;7.97;100.00;95068.53;5051019;28;20032;-48
2021/08/28 01:55:11;;;;;;;4.85;2.80;;;;;;;7.98;100.00;95078.97;5051085;28;20055;-46
2021/08/28 01:57:37;;;;;;;4.07;2.80;;;;;;;8.02;100.00;95073.91;5053559;28;20025;-49
2021/08/28 02:00:03;;;;;;;3.83;3.03;;;;;;;8.06;100.00;95083.88;5055101;28;20057;-47
2021/08/28 02:02:38;;;;;;;3.75;2.92;;;;;;;8.11;100.00;95073.25;5054182;28;20039;-54
2021/08/28 02:05:05;;;;;;;4.47;2.70;;;;;;;8.19;100.00;95068.53;5053803;28;20031;-48
2021/08/28 02:07:49;;;;;;;4.32;3.17;;;;;;;8.25;100.00;95060.34;5055016;28;20075;-48
2021/08/28 02:10:36;;;;;;;4.93;3.10;;;;;;;8.32;100.00;95060.94;5029059;28;20026;-50
2021/08/28 02:13:23;;;;;;;5.57;3.25;;;;;;;8.38;100.00;95057.31;5054994;28;20107;-50
2021/08/28 02:15:58;;;;;;;6.32;3.10;;;;;;;8.44;100.00;95052.81;5054870;28;20029;-48
2021/08/28 02:18:34;;;;;;;4.88;2.88;;;;;;;8.49;100.00;95052.88;5055773;28;20082;-53
2021/08/28 02:21:14;;;;;;;5.15;2.90;;;;;;;8.55;100.00;95046.50;5061323;28;20024;-50
2021/08/28 02:23:50;;;;;;;6.95;3.00;;;;;;;8.61;100.00;95045.50;5061784;28;20053;-49
2021/08/28 02:26:28;;;;;;;6.22;3.35;;;;;;;8.64;100.00;95044.19;5055894;28;20223;-47
2021/08/28 02:29:02;;;;;;;3.88;3.08;;;;;;;8.65;100.00;95043.13;5054824;28;20029;-49
2021/08/28 02:31:36;;;;;;;5.10;3.20;;;;;;;8.65;100.00;95051.94;5054635;28;20040;-46
2021/08/28 02:34:07;;;;;;;3.55;2.85;;;;;;;8.63;100.00;95053.25;5054421;28;20028;-53
2021/08/28 02:36:33;;;;;;;3.70;2.80;;;;;;;8.59;100.00;95049.50;5054343;28;20025;-54
2021/08/28 02:39:00;;;;;;;6.65;2.97;;;;;;;8.56;100.00;95050.78;5054220;28;20087;-48
2021/08/28 02:41:32;;;;;;;5.97;3.30;;;;;;;8.56;100.00;95053.47;5053698;28;20043;-49
2021/08/28 02:44:03;;;;;;;3.57;2.93;;;;;;;8.56;100.00;95052.66;5054601;28;20048;-51
2021/08/28 02:46:32;;;;;;;4.30;3.03;;;;;;;8.57;100.00;95055.06;5054243;28;20777;-48
2021/08/28 02:48:58;;;;;;;6.57;3.13;;;;;;;8.60;100.00;95053.78;5054159;28;20115;-48
2021/08/28 02:51:27;;;;;;;5.65;3.40;;;;;;;8.60;100.00;95045.78;5054324;28;20051;-47
2021/08/28 02:53:53;;;;;;;5.72;2.92;;;;;;;8.60;100.00;95040.44;5052739;28;20091;-49
2021/08/28 02:56:22;;;;;;;6.50;3.25;;;;;;;8.58;100.00;95038.00;5055288;28;20537;-48
2021/08/28 02:58:52;;;;;;;3.97;2.95;;;;;;;8.59;100.00;95039.63;5054926;28;20102;-48
2021/08/28 03:01:19;;;;;;;3.78;2.80;;;;;;;8.60;100.00;95040.44;5053934;28;20116;-47
2021/08/28 03:03:45;;;;;;;5.13;3.15;;;;;;;8.62;100.00;95038.31;5055112;28;20017;-48
2021/08/28 03:06:15;;;;;;;4.00;3.05;;;;;;;8.62;100.00;95033.78;5053004;28;20033;-49
2021/08/28 03:08:43;;;;;;;4.88;3.20;;;;;;;8.68;100.00;95034.59;5053137;28;20021;-46
2021/08/28 03:11:12;;;;;;;4.68;3.03;;;;;;;8.72;100.00;95030.38;5039944;28;20095;-49
2021/08/28 03:13:37;;;;;;;4.80;3.40;;;;;;;8.74;100.00;95030.13;5035959;28;20032;-49
2021/08/28 03:16:05;;;;;;;4.72;3.25;;;;;;;8.73;100.00;95025.84;5053668;28;20036;-50
2021/08/28 03:18:37;;;;;;;5.25;3.15;;;;;;;8.70;100.00;95027.97;5053864;28;20018;-46
2021/08/28 03:21:03;;;;;;;4.05;3.30;;;;;;;8.68;100.00;95021.25;5054131;28;20419;-47
2021/08/28 03:23:33;;;;;;;5.30;2.95;;;;;;;8.63;100.00;95015.88;5053820;28;20040;-47
2021/08/28 03:26:00;;;;;;;5.05;2.83;;;;;;;8.60;100.00;95008.38;5052590;28;20060;-47
2021/08/28 03:28:29;;;;;;;3.85;3.20;;;;;;;8.54;100.00;95014.72;5052416;28;20466;-48
2021/08/28 03:30:55;;;;;;;3.30;2.65;;;;;;;8.49;100.00;95012.03;5053759;28;20028;-52
2021/08/28 03:33:24;;;;;;;4.72;3.22;;;;;;;8.42;100.00;95021.03;5053516;28;20067;-49
2021/08/28 03:35:52;;;;;;;5.10;3.65;;;;;;;8.39;100.00;95010.06;5053516;28;20029;-46
2021/08/28 03:38:20;;;;;;;5.70;3.28;;;;;;;8.38;100.00;95011.13;5052453;28;20108;-46
2021/08/28 03:40:49;;;;;;;4.70;3.33;;;;;;;8.35;100.00;95008.94;5053515;28;20024;-49
2021/08/28 03:43:17;;;;;;;4.32;3.22;;;;;;;8.35;100.00;95007.06;5052038;28;20031;-47
2021/08/28 03:45:47;;;;;;;4.82;3.30;;;;;;;8.35;100.00;95007.06;5053425;28;20021;-47
2021/08/28 03:48:13;;;;;;;5.78;3.38;;;;;;;8.34;100.00;94997.47;5053194;28;20031;-47
2021/08/28 03:50:38;;;;;;;3.95;3.00;;;;;;;8.31;100.00;95000.63;5052066;28;20021;-47
2021/08/28 03:53:09;;;;;;;6.28;3.10;;;;;;;8.31;100.00;94997.13;5053081;28;20480;-47
2021/08/28 03:55:34;;;;;;;5.43;3.35;;;;;;;8.29;100.00;94994.72;5053190;28;20021;-51
2021/08/28 03:58:00;;;;;;;4.85;3.28;;;;;;;8.30;100.00;95001.69;5052755;28;20048;-47
2021/08/28 04:00:31;;;;;;;4.75;3.00;;;;;;;8.31;100.00;95005.16;5053148;28;20029;-50
2021/08/28 04:02:59;;;;;;;5.63;3.22;;;;;;;8.33;100.00;95003.03;5053028;28;20028;-50
2021/08/28 04:05:25;;;;;;;4.40;2.88;;;;;;;8.35;100.00;94995.59;5051753;28;20017;-48
2021/08/28 04:07:51;;;;;;;4.20;3.22;;;;;;;8.36;100.00;94995.38;5052733;28;20035;-53
2021/08/28 04:10:18;;;;;;;7.10;3.42;;;;;;;8.35;100.00;94988.41;5052614;28;20523;-47
2021/08/28 04:12:44;;;;;;;5.47;3.35;;;;;;;8.35;100.00;94992.94;5052573;28;20028;-48
2021/08/28 04:15:13;;;;;;;4.32;2.90;;;;;;;8.33;100.00;94987.81;5052768;28;20031;-47
2021/08/28 04:17:38;;;;;;;4.60;3.15;;;;;;;8.35;100.00;94993.72;5045873;28;20053;-46
2021/08/28 04:20:07;;;;;;;6.90;3.40;;;;;;;8.36;100.00;94987.38;5052491;28;20032;-48
2021/08/28 04:22:33;;;;;;;4.05;3.10;;;;;;;8.40;100.00;94985.78;5052551;28;20033;-48
2021/08/28 04:24:58;;;;;;;6.75;3.35;;;;;;;8.50;100.00;94989.63;5052459;28;20036;-47
2021/08/28 04:27:24;;;;;;;5.50;3.45;;;;;;;8.54;100.00;94985.38;5052530;28;20036;-52
2021/08/28 04:29:49;;;;;;;3.65;3.13;;;;;;;8.55;100.00;94976.28;5052515;28;20028;-48
2021/08/28 04:32:14;;;;;;;6.70;3.22;;;;;;;8.57;100.00;94985.66;5052620;28;20044;-48
2021/08/28 04:34:46;;;;;;;5.15;3.28;;;;;;;8.61;100.00;94980.63;5052332;28;20029;-50
2021/08/28 04:37:11;;;;;;;4.50;3.25;;;;;;;8.65;100.00;94979.06;5051053;28;20107;-47
2021/08/28 04:39:39;;;;;;;3.97;3.17;;;;;;;8.66;100.00;94980.66;5052462;28;20128;-47
2021/08/28 04:42:05;;;;;;;5.13;3.13;;;;;;;8.70;100.00;94981.78;5050844;28;20039;-51
2021/08/28 04:44:30;;;;;;;5.30;3.55;;;;;;;8.72;100.00;94971.63;5050877;28;20032;-47
2021/08/28 04:46:56;;;;;;;4.95;3.45;;;;;;;8.73;100.00;94977.78;5050881;28;20025;-51
2021/08/28 04:49:21;;;;;;;6.13;3.55;;;;;;;8.74;100.00;94979.38;5051811;28;20530;-47
2021/08/28 04:51:46;;;;;;;5.78;3.13;;;;;;;8.78;100.00;94969.78;5052079;28;20028;-49
2021/08/28 04:54:12;;;;;;;5.70;3.35;;;;;;;8.83;100.00;94976.00;5052062;28;20078;-47
2021/08/28 04:56:41;;;;;;;5.28;3.63;;;;;;;8.84;100.00;94968.78;5050995;28;20028;-49
2021/08/28 04:59:06;;;;;;;4.50;3.53;;;;;;;8.85;100.00;94963.19;5050565;28;20048;-50
2021/08/28 05:01:35;;;;;;;7.63;4.00;;;;;;;8.87;100.00;94969.06;5051578;28;20159;-53
2021/08/28 05:04:02;;;;;;;5.32;3.25;;;;;;;8.91;100.00;94966.72;5051741;28;20060;-51
2021/08/28 05:06:28;;;;;;;4.00;3.20;;;;;;;8.93;100.00;94957.38;5051602;28;20025;-56
2021/08/28 05:08:53;;;;;;;7.07;3.70;;;;;;;8.95;100.00;94965.94;5050145;28;20490;-51
2021/08/28 05:11:19;;;;;;;5.20;3.70;;;;;;;9.00;100.00;94971.28;5051317;28;20132;-49
2021/08/28 05:13:45;;;;;;;9.35;3.75;;;;;;;9.08;100.00;94959.31;5051424;28;20025;-50
2021/08/28 05:16:14;;;;;;;6.30;3.70;;;;;;;9.13;100.00;94966.59;5051313;28;20029;-49
2021/08/28 05:18:39;;;;;;;5.85;4.38;;;;;;;9.17;100.00;94967.66;5051326;28;20554;-49
2021/08/28 05:21:05;;;;;;;5.65;4.15;;;;;;;9.18;100.00;94972.75;5051418;28;20028;-54
2021/08/28 05:23:36;;;;;;;6.75;4.13;;;;;;;9.20;100.00;94973.28;5051192;28;20013;-54
2021/08/28 05:26:02;;;;;;;5.18;3.65;;;;;;;9.23;100.00;94974.66;5051153;28;20021;-53
2021/08/28 05:28:27;;;;;;;7.03;3.90;;;;;;;9.23;100.00;94972.78;5050083;28;20544;-56
2021/08/28 05:30:53;;;;;;;6.05;3.95;;;;;;;9.24;100.00;94977.06;5051073;28;20387;-55
2021/08/28 05:33:18;;;;;;;6.30;3.95;;;;;;;9.26;100.00;94977.59;5051093;28;20079;-53
2021/08/28 05:35:47;;;;;;;6.28;3.65;;;;;;;9.32;100.00;94977.63;5050005;28;20323;-55
2021/08/28 05:38:18;;;;;;;5.78;3.83;;;;;;;9.39;100.00;94983.56;5051192;28;20392;-53
2021/08/28 05:40:44;;;;;;;7.47;3.50;;;;;;;9.44;100.00;94981.72;5051063;28;20025;-54
2021/08/28 05:43:18;;;;;;;4.85;3.70;;;;;;;9.49;100.00;94992.44;5049753;28;20032;-53
2021/08/28 05:45:44;;;;;;;6.65;3.78;;;;;;;9.54;100.00;94994.31;5051023;28;20024;-53
2021/08/28 05:48:09;;;;;;;7.25;3.65;;;;;;;9.57;100.00;94999.97;5050909;28;20095;-51
2021/08/28 05:50:34;;;;;;;4.75;3.42;;;;;;;9.62;100.00;95007.19;5050525;28;20453;-56
2021/08/28 05:53:00;;;;;;;6.88;4.30;;;;;;;9.66;100.00;95008.28;5032977;28;20037;-50
2021/08/28 05:55:25;;;;;;;7.55;3.60;;;;;;;9.72;100.00;95006.44;5050727;28;20033;-50
2021/08/28 05:57:51;;;;;;;4.90;4.10;;;;;;;9.79;100.00;95007.00;5049265;28;20029;-56
2021/08/28 06:00:16;;;;;;;5.88;3.78;;;;;;;9.84;100.00;95005.16;5049471;28;20024;-56
2021/08/28 06:02:42;;;;;;;7.90;4.28;;;;;;;9.93;100.00;95007.31;5049100;28;20142;-55
2021/08/28 06:05:12;;;;;;;7.22;4.55;;;;;;;9.97;100.00;95003.03;5050956;28;20021;-55
2021/08/28 06:07:37;;;;;;;5.10;3.75;;;;;;;9.99;100.00;94990.22;5050839;28;20513;-53
2021/08/28 06:10:07;;;;;;;5.63;3.75;;;;;;;10.06;100.00;94988.91;5045892;28;20044;-52
2021/08/28 06:12:34;;;;;;;4.93;4.07;;;;;;;10.16;100.00;94990.78;5043750;28;20032;-50
2021/08/28 06:15:02;;;;;;;4.88;3.80;;;;;;;10.24;100.00;94990.31;5050714;28;20025;-52
2021/08/28 06:17:27;;;;;;;5.70;4.20;;;;;;;10.32;100.00;94983.66;5057808;28;20024;-53
2021/08/28 06:19:53;;;;;;;6.35;4.20;;;;;;;10.41;100.00;94987.38;5011367;28;20045;-55
2021/08/28 06:22:23;;;;;;;6.65;4.22;;;;;;;10.50;100.00;94985.78;5050672;28;20025;-51
2021/08/28 06:24:52;;;;;;;6.07;4.20;;;;;;;10.58;100.00;94979.91;5049361;28;20418;-56
2021/08/28 06:27:17;;;;;;;6.72;4.65;;;;;;;10.68;100.00;94982.59;5050711;28;20108;-51
2021/08/28 06:29:43;;;;;;;5.90;4.07;;;;;;;10.76;100.00;94975.91;5050537;28;20033;-53
2021/08/28 06:32:17;;;;;;;7.55;4.28;;;;;;;10.88;100.00;94971.09;5050458;28;20064;-54
2021/08/28 06:34:42;;;;;;;5.70;4.18;;;;;;;10.97;100.00;94966.78;5050281;28;20029;-56
2021/08/28 06:37:07;;;;;;;7.72;4.13;;;;;;;11.09;100.00;94963.03;5050671;28;20044;-55
2021/08/28 06:39:33;;;;;;;8.00;3.75;;;;;;;11.17;100.00;94954.41;5049075;28;20021;-53
2021/08/28 06:41:58;;;;;;;5.15;3.88;;;;;;;11.25;100.00;94948.50;5050521;28;20467;-56
2021/08/28 06:44:26;;;;;;;5.80;4.05;;;;;;;11.34;100.00;94938.84;5052899;28;20056;-50
2021/08/28 06:46:51;;;;;;;6.88;4.13;;;;;;;11.43;100.00;94934.50;5054066;28;20066;-52
2021/08/28 06:49:20;;;;;;;6.65;3.75;;;;;;;11.48;100.00;94929.13;5054158;28;20395;-56
2021/08/28 06:51:45;;;;;;;7.68;3.80;;;;;;;11.52;100.00;94919.47;5054072;28;20468;-54
2021/08/28 06:54:11;;;;;;;5.47;3.83;;;;;;;11.60;100.00;94913.50;5052981;28;20044;-50
2021/08/28 06:56:38;;;;;;;5.60;3.72;;;;;;;11.66;100.00;94898.22;5053001;28;20433;-56
2021/08/28 06:59:11;;;;;;;5.97;3.80;;;;;;;11.71;100.00;94882.06;5053684;28;20102;-53
2021/08/28 07:01:36;;;;;;;;;;;;;;;11.78;100.00;94863.78;5054657;28;20364;-53
2021/08/28 07:04:02;;;;;;;4.25;3.50;;;;;;;11.84;100.00;94854.69;5054017;28;19916;-55
2021/08/28 07:06:27;;;;;;;6.88;3.83;;;;;;;11.86;100.00;94835.63;5051671;28;20094;-55
2021/08/28 07:08:53;;;;;;;4.97;3.85;;;;;;;11.86;100.00;94824.88;5047156;28;20032;-52
2021/08/28 07:11:18;;;;;;;8.30;4.70;;;;;;;11.88;100.00;94812.78;5050057;28;20141;-53
2021/08/28 07:13:46;;;;;;;5.15;4.18;;;;;;;11.89;100.00;94790.22;5043323;28;20063;-54
2021/08/28 07:16:11;;;;;;;7.28;4.25;;;;;;;11.91;100.00;94784.56;5044028;28;20021;-53
2021/08/28 07:18:39;;;;;;;5.55;4.32;;;;;;;11.93;100.00;94778.91;5037949;28;20372;-55
2021/08/28 07:21:17;;;;;;;5.68;4.15;;;;;;;11.97;100.00;94766.56;5047635;28;20021;-57
2021/08/28 07:23:43;;;;;;;8.40;4.70;;;;;;;11.99;100.00;94767.06;5052065;28;20226;-55
2021/08/28 07:26:17;;;;;;;8.18;4.78;;;;;;;12.05;100.00;94769.44;5047289;28;20024;-55
2021/08/28 07:28:46;;;;;;;10.55;4.45;;;;;;;12.10;100.00;94755.16;5044974;28;20215;-53
2021/08/28 07:31:12;;;;;;;7.68;4.05;;;;;;;12.12;100.00;94755.69;5048753;28;20032;-55
2021/08/28 07:33:37;;;;;;;5.18;4.43;;;;;;;12.19;100.00;94761.53;5032857;28;20021;-55
2021/08/28 07:36:03;;;;;;;8.65;4.40;;;;;;;12.25;100.00;94754.22;5051984;28;20210;-55
2021/08/28 07:38:28;;;;;;;5.40;4.18;;;;;;;12.25;100.00;94748.84;5048839;28;20094;-51
2021/08/28 07:40:57;;;;;;;9.50;4.22;;;;;;;12.29;100.00;94747.22;5034117;28;20020;-56
2021/08/28 07:43:22;;;;;;;7.43;4.20;;;;;;;12.30;100.00;94740.75;5052981;28;20017;-54
2021/08/28 07:45:48;;;;;;;4.90;3.80;;;;;;;12.34;100.00;94742.59;5067362;28;20098;-55
2021/08/28 07:48:13;;;;;;;6.13;4.00;;;;;;;12.43;100.00;94745.44;5050465;28;20060;-55
2021/08/28 07:50:43;;;;;;;5.93;3.88;;;;;;;12.53;100.00;94749.94;5036288;28;20031;-57
2021/08/28 07:53:15;;;;;;;5.38;3.80;;;;;;;12.61;100.00;94755.47;5052982;28;20021;-55
2021/08/28 07:55:46;;;;;;;6.75;3.65;;;;;;;12.71;100.00;94749.19;5047974;28;20040;-55
2021/08/28 07:58:14;;;;;;;6.90;3.88;;;;;;;12.81;100.00;94750.94;5049953;28;20140;-56
2021/08/28 08:00:46;;;;;;;5.75;3.72;;;;;;;12.86;100.00;94750.91;5050977;28;20037;-52
2021/08/28 08:03:14;;;;;;;6.03;3.72;;;;;;;12.94;100.00;94755.66;5052623;28;20029;-53
2021/08/28 08:05:46;;;;;;;5.47;3.63;;;;;;;12.99;100.00;94760.94;5052447;28;20082;-54
2021/08/28 08:08:11;;;;;;;7.80;4.05;;;;;;;13.04;100.00;94766.28;5053841;28;20079;-55
2021/08/28 08:10:37;;;;;;;5.90;3.63;;;;;;;13.08;100.00;94775.38;5053577;28;20025;-54
2021/08/28 08:13:02;;;;;;;6.95;3.75;;;;;;;13.11;100.00;94773.97;5053831;28;20035;-53
2021/08/28 08:15:28;;;;;;;6.22;3.95;;;;;;;13.20;100.00;94783.84;5053614;28;20025;-55
2021/08/28 08:17:54;;;;;;;6.95;3.95;;;;;;;13.26;100.00;94784.59;5017304;28;20060;-55
2021/08/28 08:20:20;;;;;;;10.07;4.28;;;;;;;13.29;100.00;94786.69;5053441;28;20035;-58
2021/08/28 08:22:48;;;;;;;8.45;4.00;;;;;;;13.32;100.00;94783.41;5053648;28;20095;-55
2021/08/28 08:25:16;;;;;;;6.82;4.20;;;;;;;13.41;100.00;94789.75;5053472;28;20064;-53
2021/08/28 08:27:44;;;;;;;9.07;4.63;;;;;;;13.49;100.00;94791.81;5053491;28;20025;-52
2021/08/28 08:30:10;;;;;;;7.15;3.70;;;;;;;13.56;100.00;94794.94;5052308;28;20174;-55
2021/08/28 08:32:44;;;;;;;6.57;3.92;;;;;;;13.69;100.00;94809.56;5053846;28;20060;-55
2021/08/28 08:35:10;;;;;;;7.95;3.97;;;;;;;13.85;100.00;94804.75;5053227;28;20021;-56
2021/08/28 08:37:35;;;;;;;8.40;4.20;;;;;;;14.05;100.00;94809.03;5052074;28;20082;-55
2021/08/28 08:40:04;;;;;;;7.32;3.70;;;;;;;14.23;100.00;94821.69;5052025;28;20082;-56
2021/08/28 08:42:35;;;;;;;6.90;3.78;;;;;;;14.37;100.00;94833.31;5053277;28;20483;-51
2021/08/28 08:45:03;;;;;;;7.78;4.07;;;;;;;14.51;100.00;94852.25;5051943;28;20035;-53
2021/08/28 08:47:29;;;;;;;5.68;3.20;;;;;;;14.59;100.00;94851.56;5052708;28;20052;-52
2021/08/28 08:49:55;;;;;;;8.45;3.17;;;;;;;14.68;100.00;94870.56;5052672;28;20031;-54
2021/08/28 08:52:24;;;;;;;6.30;3.17;;;;;;;14.80;100.00;94876.28;5051908;28;20131;-53
2021/08/28 08:54:53;;;;;;;5.60;3.70;;;;;;;14.92;100.00;94890.09;5036639;28;20057;-55
2021/08/28 08:57:19;;;;;;;6.55;3.10;;;;;;;15.05;100.00;94912.78;5052941;28;20016;-52
2021/08/28 08:59:45;;;;;;;5.60;3.00;;;;;;;15.16;100.00;94933.09;5050983;28;20102;-54
2021/08/28 09:02:19;;;;;;;3.80;2.70;;;;;;;15.21;100.00;94940.31;5052884;28;20047;-51
2021/08/28 09:04:45;;;;;;;3.40;2.70;;;;;;;15.23;100.00;94943.50;5052779;28;20048;-51
2021/08/28 09:07:14;;;;;;;4.53;3.10;;;;;;;15.44;100.00;94957.44;5050840;28;20024;-51
2021/08/28 09:09:42;;;;;;;7.82;3.00;;;;;;;15.73;100.00;94974.16;5052725;28;20020;-53
2021/08/28 09:12:34;;;;;;;3.63;2.50;;;;;;;15.97;100.00;94984.00;5052563;28;20068;-52
2021/08/28 09:15:08;;;;;;;5.80;2.80;;;;;;;16.15;100.00;95004.69;5052698;28;20029;-51
2021/08/28 09:17:35;;;;;;;6.22;2.72;;;;;;;16.61;100.00;95025.38;5052559;28;20033;-50
2021/08/28 09:20:01;;;;;;;4.07;3.00;;;;;;;17.22;100.00;95065.38;5052623;28;20021;-52
2021/08/28 09:22:36;;;;;;;5.45;2.78;;;;;;;17.71;100.00;95122.47;5052756;28;20025;-52
2021/08/28 09:25:11;;;;;;;4.60;3.28;;;;;;;18.37;100.00;95178.50;5039426;28;20029;-51
2021/08/28 09:27:46;;;;;;;4.50;2.70;;;;;;;18.70;100.00;95208.84;5029557;28;20037;-54
2021/08/28 09:30:31;;;;;;;5.22;2.85;;;;;;;18.97;100.00;95256.66;5026480;28;20150;-53
2021/08/28 09:33:00;;;;;;;4.82;2.60;;;;;;;19.18;100.00;95272.38;5050804;28;20056;-54
2021/08/28 09:35:50;;;;;;;5.93;2.75;;;;;;;19.37;100.00;95291.94;5039009;28;20025;-52
2021/08/28 09:38:22;;;;;;;5.45;2.38;;;;;;;19.05;100.00;95310.19;5047391;28;20127;-53
2021/08/28 09:40:54;;;;;;;4.18;2.42;;;;;;;19.17;100.00;95315.03;5049308;28;20025;-56
2021/08/28 09:43:21;;;;;;;3.17;2.38;;;;;;;19.39;100.00;95319.59;5051098;28;20127;-52
2021/08/28 09:45:48;;;;;;;5.22;2.20;;;;;;;19.80;100.00;95345.63;5050562;28;20027;-55
2021/08/28 09:48:16;;;;;;;3.67;2.10;;;;;;;20.24;100.00;95358.97;5050858;28;20024;-53
2021/08/28 09:50:44;;;;;;;1.90;1.58;;;;;;;20.30;100.00;95402.31;5050438;28;20450;-57
2021/08/28 09:53:11;;;;;;;3.30;1.70;;;;;;;20.41;100.00;95423.47;5049461;28;20021;-50
2021/08/28 09:55:46;;;;;;;2.78;1.30;;;;;;;20.82;100.00;95420.28;5050977;28;20389;-51
2021/08/28 09:58:12;;;;;;;2.50;1.67;;;;;;;20.88;100.00;95455.53;5048985;28;20049;-53
2021/08/28 10:00:42;;;;;;;2.45;1.77;;;;;;;21.19;100.00;95461.59;5049700;28;20434;-55
2021/08/28 10:03:14;;;;;;;3.35;1.65;;;;;;;21.36;100.00;95463.50;5049437;28;20056;-53
2021/08/28 10:05:45;;;;;;;3.17;1.77;;;;;;;21.77;100.00;95473.00;5049356;28;20116;-52
2021/08/28 10:08:17;;;;;;;2.67;1.70;;;;;;;21.86;100.00;95488.22;5050264;28;20108;-51
2021/08/28 10:10:43;;;;;;;2.97;1.58;;;;;;;22.30;100.00;95516.16;5050036;28;20024;-55
2021/08/28 10:13:28;;;;;;;4.30;1.42;;;;;;;22.17;99.11;95519.91;5050519;28;20025;-51
2021/08/28 10:15:56;;;;;;;4.93;1.90;;;;;;;22.49;99.58;95522.00;5048911;28;20071;-50
2021/08/28 10:18:24;;;;;;;2.05;1.80;;;;;;;22.45;100.00;95509.31;5052855;28;20074;-53
2021/08/28 10:20:52;;;;;;;3.72;1.48;;;;;;;22.04;100.00;95520.91;5053517;28;20059;-51
2021/08/28 10:23:21;;;;;;;2.00;1.67;;;;;;;21.68;100.00;95522.09;5052137;28;20031;-49
2021/08/28 10:25:50;;;;;;;1.80;1.40;;;;;;;21.17;100.00;95512.88;5053937;28;20056;-54
2021/08/28 10:28:17;;;;;;;1.20;1.10;;;;;;;20.97;100.00;95508.88;5054296;28;20057;-52
2021/08/28 10:30:47;;;;;;;2.22;1.17;;;;;;;20.34;100.00;95502.03;5055613;28;20036;-53
2021/08/28 10:33:16;;;;;;;2.25;1.10;;;;;;;19.84;100.00;95485.22;5055448;28;20025;-53
2021/08/28 10:35:42;;;;;;;2.22;1.15;;;;;;;19.51;100.00;95460.25;5055476;28;20056;-55
2021/08/28 10:38:08;;;;;;;1.58;1.10;;;;;;;19.38;100.00;95445.66;5054330;28;20060;-56
2021/08/28 10:40:42;;;;;;;2.10;1.45;;;;;;;19.39;100.00;95447.25;5055444;28;20029;-53
2021/08/28 10:43:22;;;;;;;2.22;1.33;;;;;;;19.29;100.00;95458.38;5070820;28;20052;-54
2021/08/28 10:45:55;;;;;;;3.25;1.50;;;;;;;19.18;100.00;95443.47;5055433;28;20025;-51
2021/08/28 10:48:23;;;;;;;2.53;1.40;;;;;;;19.34;100.00;95453.63;5055602;28;20017;-50
2021/08/28 10:50:53;;;;;;;3.45;1.52;;;;;;;19.40;100.00;95460.53;5055137;28;20028;-53
2021/08/28 10:53:19;;;;;;;2.60;1.52;;;;;;;19.42;100.00;95446.63;5055094;28;20032;-55
2021/08/28 10:55:47;;;;;;;3.13;1.58;;;;;;;19.60;100.00;95434.75;5055129;28;20392;-53
2021/08/28 11:01:04;;;;;;;3.95;1.75;;;;;;;19.69;100.00;95437.53;5052447;28;20053;-59
2021/08/28 11:03:43;;;;;;;1.55;1.30;;;;;;;19.61;100.00;95452.66;5054460;28;20029;-59
2021/08/28 11:06:15;;;;;;;2.50;1.27;;;;;;;19.52;100.00;95437.41;5055337;28;20029;-56
2021/08/28 11:08:59;;;;;;;4.07;1.52;;;;;;;19.36;100.00;95399.00;5043632;28;20032;-59
2021/08/28 11:11:47;;;;;;;6.82;2.00;;;;;;;18.94;100.00;95139.78;5075496;28;20555;-58
2021/08/28 11:14:14;;;;;;;4.60;1.75;;;;;;;18.45;100.00;95042.13;5074898;28;20040;-50
2021/08/28 11:16:52;;;;;;;4.22;1.70;;;;;;;17.84;100.00;94961.72;5056811;28;20390;-53
2021/08/28 11:19:24;;;;;;;3.08;1.73;;;;;;;17.43;100.00;94848.28;5074531;28;20059;-57
2021/08/28 11:21:52;;;;;;;3.55;2.00;;;;;;;16.98;100.00;94813.22;5056573;28;20071;-55
2021/08/28 11:24:20;;;;;;;4.45;2.05;;;;;;;16.70;100.00;94777.44;5054710;28;20523;-57
2021/08/28 11:26:57;;;;;;;4.40;2.13;;;;;;;16.47;100.00;94776.66;5054612;28;20134;-57
2021/08/28 11:29:30;;;;;;;2.45;2.10;;;;;;;16.40;100.00;94776.31;5054212;28;20379;-57
2021/08/28 11:32:33;;;;;;;;;;;;;;;16.30;100.00;94773.84;5053759;28;20051;-51
2021/08/28 11:34:59;;;;;;;3.47;1.70;;;;;;;16.28;100.00;94776.03;4993008;28;20380;-54
2021/08/28 11:37:36;;;;;;;4.30;1.60;;;;;;;16.38;100.00;94795.50;5042750;28;20471;-51
2021/08/28 11:40:27;;;;;;;3.78;1.58;;;;;;;16.42;100.00;94845.16;5054382;28;20031;-54